Terminal Aerodrome Forecast
Issued by NWS

Home | Current Version | Previous Version | Graphics & Text | Print | Product List | Glossary On
Versions: 1 2 3 4 5 6 7 8 9 10 11 12 13 14 15 16 17 18
000
FTUS43 KABR 241720
TAFATY
TAF
KATY 241720Z 2418/2518 33019G27KT P6SM SCT025 BKN040
     FM250000 33016KT P6SM BKN070
     FM250100 33014G21KT P6SM SCT110
     FM250500 32009KT P6SM FEW200
     FM251700 32013KT P6SM SCT140=

USA.gov is the U.S. government's official web portal to all federal, state and local government web resources and services.